x

West Sea Otter (46204) Wave Buoy

11:00 - Fri 20th Jan 2017 All times are PST. -8 hours from GMT.

  • Sig Wave height 9.8ft
  • Peak Period 12s
  • Wind
    13mph, 20mph gusts
  • Sea Temp 48°f
  • Air Temp 46°f
  • Sea Pressure 989mb
  • West Sea Otter
  • West Sea Otter

More Historic Weather Station data

Upgrade to MSW Pro to gain access to the past 30 days of data for over 8000 Wavebouys and Weather Stations around the globe.

Join Pro

Comparision Forecast

View Surf forecast
   
ven. 01/20 11:00 10ft 12s 13 20 mph 989mb 48f 46f
10:00 11ft 14s 13 18 mph 989mb 48f 46f
9:00 10ft 16s 13 18 mph 989mb 48f 45f
8:00 10ft 14s 13 18 mph 989.1mb 48f 46f
7:00 11ft 15s 18 20 mph 989.1mb 48f 46f
6:00 11.5ft 16s 20 22 mph 989.3mb 48f 46f
5:00 13ft 14s 20 25 mph 989.6mb 48f 46f
4:00 13ft 16s 18 22 mph 990mb 48f 46f
3:00 12.5ft 16s 18 22 mph 990.5mb 48f 46f
2:00 14ft 16s 18 22 mph 990.7mb 48f 46f
1:00 14ft 15s 18 22 mph 990.9mb 48f 46f
12:00 13.5ft 14s 7 9 mph 991.4mb 48f 44f
jeu. 01/19 11:00 10ft 12s 13 16 mph 991.5mb 48f 45f
10:00 10.5ft 13s 13 18 mph 991.5mb 48f 44f
9:00 10ft 12s 13 16 mph 991.5mb 48f 45f
8:00 8.5ft 13s 7 13 mph 991.7mb 48f 45f
7:00 8.5ft 12s 11 16 mph 992mb 48f 44f
6:00 8ft 12s 7 9 mph 992.1mb 48f 45f
5:00 8.5ft 12s 9 13 mph 992.2mb 48f 44f
4:00 9ft 12s 11 13 mph 992.1mb 48f 46f
3:00 9ft 11s 9 13 mph 991.9mb 48f 46f
2:00 9ft 12s 11 13 mph 992mb 48f 46f
1:00 9.5ft 12s 11 13 mph 992.1mb 48f 46f
12:00 9ft 11s 11 13 mph 992.3mb 48f 46f
11:00 9ft 11s 13 18 mph 992.3mb 48f 46f
10:00 9ft 12s 9 11 mph 992mb 48f 45f
9:00 10ft 12s 11 16 mph 991.2mb 48f 46f
8:00 10.5ft 12s 13 18 mph 990.4mb 48f 47f
7:00 10ft 13s 13 18 mph 989.6mb 48f 47f
6:00 11ft 12s 16 20 mph 988.8mb 48f 47f
5:00 9.5ft 13s 20 25 mph 987.5mb 48f 46f
4:00 10ft 12s 22 29 mph 985.9mb 48f 46f
3:00 10.5ft 12s 29 36 mph 983.9mb 48f 47f
2:00 12ft 12s 25 29 mph 981.1mb 48f 47f
1:00 12ft 12s 27 34 mph 980mb 48f 47f
12:00 12ft 12s 34 43 mph 979.5mb 48f 47f
mer. 01/18 11:00 11ft 12s 31 38 mph 980.6mb 48f 48f
10:00 10.5ft 12s 31 38 mph 980.7mb 48f 48f
9:00 10ft 12s 27 34 mph 981mb 48f 48f
8:00 11ft 11s 20 27 mph 980.8mb 48f 48f
7:00 11ft 13s 20 25 mph 980.8mb 48f 48f
6:00 12ft 12s 25 36 mph 980.3mb 48f 48f
5:00 13ft 12s 27 34 mph 979.5mb 48f 48f
4:00 12ft 12s 25 31 mph 977.8mb 48f 47f
3:00 11ft 11s 34 40 mph 976mb 48f 48f
2:00 11ft 11s 11 18 mph 977.2mb 48f 47f
1:00 11ft 12s 18 25 mph 977.8mb 48f 49f
12:00 11.5ft 10s 22 29 mph 978.2mb 48f 50f
11:00 11.5ft 12s 18 22 mph 979.1mb 48f 50f
10:00 11.5ft 12s 9 11 mph 979.8mb 48f 48f
9:00 12ft 11s 16 20 mph 980.8mb 48f 47f
8:00 12ft 12s 22 27 mph 981.1mb 48f 47f
7:00 13ft 13s 25 31 mph 981.2mb 48f 48f
6:00 15.5ft 10s 29 36 mph 980.7mb 48f 47f
5:00 15ft 11s 29 36 mph 979.6mb 48f 47f
4:00 15.5ft 8s 31 38 mph 977.8mb 48f 48f
3:00 15.5ft 14s 38 51 mph 976.5mb 48f 48f
2:00  -   -  38
mph
976.1mb - 48f
1:00 14.5ft 13s 34 40 mph 976.6mb 48f 48f
12:00 14.5ft 12s 34 43 mph 976.8mb 48f 49f
mar. 01/17 11:00 15.5ft 13s 34 43 mph 976.7mb 48f 49f
10:00 14.5ft 12s 29 38 mph 977.1mb 48f 48f
9:00 15.5ft 14s 45 54 mph 975.5mb 48f 47f
8:00 15ft 11s 38 47 mph 975.6mb 48f 48f
7:00 15ft 14s 40 49 mph 976.3mb 48f 48f
6:00 15ft 12s 38 47 mph 977.7mb 48f 49f
5:00 15ft 14s 36 43 mph 979.6mb 48f 48f
3:00 15ft 14s 29 36 mph 982mb 48f 48f
2:00 16.5ft 7s 36 45 mph 983.1mb 48f 48f
1:00 16.5ft 15s 36 45 mph 984.2mb 48f 48f
12:00 18.5ft 15s 34 43 mph 985.1mb 48f 48f
11:00 17ft 8s 36 45 mph 985.6mb 48f 46f
10:00 20ft 16s 43 56 mph 985.3mb 48f 46f
9:00 19ft 15s 43 56 mph 985.1mb 48f 46f
8:00 20.5ft 8s 45 54 mph 985.2mb 48f 46f
7:00 21ft 8s 45 58 mph 985.7mb 48f 46f
6:00 20.5ft 8s 40 51 mph 987mb 48f 46f
5:00 20ft 15s 43 54 mph 987.2mb 48f 46f
4:00 18.5ft 16s 43 54 mph 988.7mb 48f 47f
3:00 19.5ft 17s 38
mph
990.4mb 48f 47f
2:00 19.5ft 8s 43 54 mph 991.7mb 48f 47f
1:00 20ft 17s 43 54 mph 993mb 48f 46f
12:00 19.5ft 16s 43 54 mph 993.2mb 48f 46f
lun. 01/16 11:00 20.5ft 16s 36 45 mph 995mb 48f 46f
10:00 20.5ft 17s 36 45 mph 995.7mb 48f 46f
9:00 20.5ft 16s 31 40 mph 995.9mb 48f 46f